• Join FlightAware (Why Join?)
  • Login
  • US Flag 
10:15PM EDT


 

Airport Tracker/Info


-or-


 

Live Flight TrackerFlight Track Log ✈ N620ZJ ✈ 27-Jun-2014 ✈ KHQZ - KGUC

Flight Track Log - Related Links

Times and Time Zones

All times are in EDT time to prevent confusion due to time zone crossing. See the N620ZJ flight status page for this flight to view local times or setup timezone preferences in your user account.

Time Position Orientation Groundspeed Altitude Reporting Facility
EDT Latitude Longitude Course Direction KTS MPH feet Rate Location/Type
11:47AM 34.2572 -98.8536 307° West 141 162 6,500  Level Fort Worth Center
11:47AM 34.2736 -98.8803 307° West 142 163 6,500  Level Fort Worth Center
11:48AM 34.2814 -98.8942 304° West 141 162 6,500  Level Fort Worth Center
11:48AM 34.2947 -98.9172 305° West 141 162 6,500  Level Fort Worth Center
11:49AM 34.3050 -98.9347 305° West 141 162 6,500  Level Fort Worth Center
11:49AM 34.3183 -98.9564 307° West 139 160 6,500  Level Fort Worth Center
11:50AM 34.3283 -98.9747 303° West 140 161 6,500  Level Fort Worth Center
11:50AM 34.3397 -98.9933 307° West 140 161 6,500  Level Fort Worth Center
11:51AM 34.3522 -99.0139 306° West 140 161 6,500  Level Fort Worth Center
11:51AM 34.3633 -99.0325 306° West 140 161 6,500  Level Fort Worth Center
11:52AM 34.3736 -99.0514 303° West 140 161 6,500  Level Fort Worth Center
11:52AM 34.3842 -99.0669 309° West 140 161 6,500  Level Fort Worth Center
11:53AM 34.3986 -99.0908 306° West 140 161 6,500  Level Fort Worth Center
11:53AM 34.4078 -99.1061 306° West 140 161 6,500  Level Fort Worth Center
11:54AM 34.4214 -99.1311 303° West 140 161 6,500  Level Fort Worth Center
11:54AM 34.4292 -99.1431 308° West 140 161 6,500  Level Fort Worth Center
11:55AM 34.4442 -99.1725 302° West 140 161 6,500  Level Fort Worth Center
11:55AM 34.4508 -99.1853 302° West 140 161 6,500  Level Fort Worth Center
11:56AM 34.4678 -99.2133 306° West 141 162 6,500  Level Fort Worth Center
11:56AM 34.4758 -99.2192 329° Northwest 148 170 6,500  Level Fort Worth Center
11:57AM 34.5000 -99.2489 315° West 147 169 6,500  Level Fort Worth Center
11:57AM 34.5039 -99.2603 293° West 147 169 6,500  Level Fort Worth Center
11:58AM 34.5161 -99.2897 297° West 141 162 6,500  Level Fort Worth Center
11:58AM 34.5211 -99.3006 299° West 137 158 6,500  Level Fort Worth Center
11:59AM 34.5403 -99.3311 307° West 141 162 6,500  Level Fort Worth Center
11:59AM 34.5467 -99.3394 313° West 146 168 6,500  Level Fort Worth Center
12:00PM 34.5661 -99.3717 306° West 145 167 6,500  Level Fort Worth Center
12:00PM 34.5683 -99.3792 290° West 140 161 6,500  Level Fort Worth Center
12:01PM 34.5808 -99.4153 293° West 134 154 6,500  Level Fort Worth Center
12:02PM 34.6225 -99.4489 326° Northwest 153 176 6,500  Level Fort Worth Center
12:03PM 34.6442 -99.4911 302° West 140 161 6,500  Level Fort Worth Center
12:04PM 34.6653 -99.5286 304° West 141 162 6,600  Climbing Fort Worth Center
12:05PM 34.6931 -99.5672 311° West 146 168 6,600  Level Fort Worth Center
12:06PM 34.7039 -99.6089 288° West 131 151 6,600  Level Fort Worth Center
12:07PM 34.7350 -99.6419 319° Northwest 159 183 6,600  Level Fort Worth Center
12:09PM 34.7658 -99.6725 321° Northwest 141 162 6,600 -60 Level Fort Worth Center
12:09PM 34.7758 -99.6928 301° West 106 122 6,500  Descending Fort Worth Center
12:10PM 34.7869 -99.7100 308° West 139 160 6,600  Climbing Fort Worth Center
12:10PM 34.8125 -99.7150 351° North 145 167 6,500  Descending Fort Worth Center
12:11PM 34.8322 -99.7178 353° North 164 189 6,600  Climbing Fort Worth Center
12:11PM 34.8586 -99.7117 11° North 159 183 6,500  Descending Fort Worth Center
12:12PM 34.8767 -99.7028 22° Northeast 173 199 6,600  Climbing Fort Worth Center
12:12PM 34.9114 -99.6861 21° North 165 190 6,500  Descending Fort Worth Center
12:13PM 34.9206 -99.6800 29° Northeast 167 192 6,600  Climbing Fort Worth Center
12:13PM 34.9553 -99.6697 14° North 165 190 6,500  Descending Fort Worth Center
12:14PM 34.9661 -99.6725 348° North 167 192 6,600  Climbing Fort Worth Center
12:14PM 34.9867 -99.6972 315° West 169 194 6,500  Descending Fort Worth Center
12:15PM 34.9847 -99.7078 257° West 122 140 6,600 60 Climbing Fort Worth Center
12:15PM 35.0042 -99.7303 317° Northwest 135 155 6,600 60 Level Fort Worth Center
12:16PM 35.0114 -99.7394 314° West 143 165 6,700 180 Climbing Fort Worth Center
12:16PM 35.0403 -99.7567 334° Northwest 144 166 6,800 60 Climbing Fort Worth Center
12:17PM 35.0478 -99.7639 322° Northwest 146 168 6,800  Level Fort Worth Center
12:17PM 35.0761 -99.7806 334° Northwest 145 167 6,800 60 Level Fort Worth Center
12:18PM 35.1097 -99.8197 316° Northwest 144 166 7,000 120 Climbing Fort Worth Center
12:20PM 35.1333 -99.8533 311° West 136 157 7,100 120 Climbing Fort Worth Center
12:21PM 35.1539 -99.8883 306° West 131 151 7,300 180 Climbing Fort Worth Center
12:22PM 35.1611 -99.9239 284° West 113 130 7,500 180 Climbing Fort Worth Center
12:23PM 35.1628 -99.9567 274° West 103 119 7,700 180 Climbing Fort Worth Center
12:24PM 35.1794 -99.9881 303° West 104 120 7,900 180 Climbing Fort Worth Center
12:25PM 35.2006 -100.0200 309° West 113 130 8,100 240 Climbing Fort Worth Center
12:26PM 35.2311 -100.0547 317° Northwest 120 138 8,500 240 Climbing Fort Worth Center
12:27PM 35.2650 -100.0767 332° Northwest 130 150 8,600  Climbing Fort Worth Center
12:28PM 35.3086 -100.0878 348° North 149 171 8,600  Level Fort Worth Center
12:29PM 35.3458 -100.1164 328° Northwest 155 178 8,600 -60 Level Fort Worth Center
12:30PM 35.3800 -100.1475 323° Northwest 154 177 8,500 -60 Descending Fort Worth Center
12:31PM 35.4117 -100.1825 318° Northwest 154 177 8,500  Level Fort Worth Center
12:32PM 35.4375 -100.2181 312° West 147 169 8,500  Level Fort Worth Center
12:33PM 35.4567 -100.2667 296° West 136 157 8,500 60 Level Fort Worth Center
12:34PM 35.4689 -100.3056 291° West 126 145 8,700 120 Climbing Fort Worth Center
12:35PM 35.4942 -100.3439 309° West 131 151 8,800  Climbing Fort Worth Center
12:36PM 35.5208 -100.3822 311° West 140 161 8,700 -120 Descending Fort Worth Center
12:37PM 35.5339 -100.4267 290° West 141 162 8,600 -120 Descending Fort Worth Center
12:38PM 35.5461 -100.4686 290° West 136 157 8,500 -180 Descending Fort Worth Center
12:39PM 35.5603 -100.5200 289° West 136 157 8,300 -120 Descending Fort Worth Center
12:40PM 35.5750 -100.5625 293° West 136 157 8,300  Level Fort Worth Center
12:41PM 35.5886 -100.6039 292° West 135 155 8,400 60 Climbing Fort Worth Center
12:42PM 35.6011 -100.6411 292° West 125 144 8,500 120 Climbing Fort Worth Center
12:43PM 35.6119 -100.6806 289° West 122 140 8,700 60 Climbing Fort Worth Center
12:45PM 35.6236 -100.7378 284° West 124 143 8,700  Level Albuquerque Center
12:46PM 35.6344 -100.7811 287° West 129 148 8,700 -120 Level Albuquerque Center
12:47PM 35.6389 -100.8344 276° West 130 150 8,500 -120 Descending Albuquerque Center
12:48PM 35.6486 -100.8778 285° West 130 150 8,500  Level Albuquerque Center
12:49PM 35.6622 -100.9217 291° West 133 153 8,500 -60 Level Albuquerque Center
12:50PM 35.6797 -100.9617 298° West 134 154 8,400 -60 Descending Albuquerque Center
12:51PM 35.6981 -100.9997 301° West 133 153 8,400 60 Level Albuquerque Center
12:52PM 35.7208 -101.0453 302° West 133 153 8,600 60 Climbing Albuquerque Center
12:53PM 35.7444 -101.0800 310° West 132 152 8,600  Level Albuquerque Center
12:54PM 35.7719 -101.1144 315° West 136 157 8,600  Level Albuquerque Center
12:55PM 35.7903 -101.1544 299° West 137 158 8,600 -60 Level Albuquerque Center
12:56PM 35.8078 -101.1956 298° West 137 158 8,500  Descending Albuquerque Center
12:57PM 35.8317 -101.2356 306° West 139 160 8,600  Climbing Albuquerque Center
12:58PM 35.8550 -101.2794 303° West 135 155 8,500 -120 Descending Albuquerque Center
12:59PM 35.8808 -101.3150 312° West 135 155 8,400 -60 Descending Albuquerque Center
01:00PM 35.9094 -101.3486 316° Northwest 137 158 8,400  Level Albuquerque Center
01:01PM 35.9356 -101.3797 316° Northwest 136 157 8,400  Level Albuquerque Center
01:02PM 35.9569 -101.4164 306° West 134 154 8,400  Level Albuquerque Center
01:03PM 35.9842 -101.4597 308° West 134 154 8,500  Climbing Albuquerque Center
01:04PM 36.0114 -101.4947 314° West 134 154 8,500  Level Albuquerque Center
01:05PM 36.0303 -101.5342 301° West 141 162 8,500 -60 Level Albuquerque Center
01:06PM 36.0664 -101.5558 334° Northwest 146 168 8,400 -60 Descending Albuquerque Center
01:08PM 36.1042 -101.5703 343° North 146 168 8,400  Level Albuquerque Center
01:09PM 36.1406 -101.6092 319° Northwest 142 163 8,500 60 Climbing Albuquerque Center
01:10PM 36.1703 -101.6403 320° Northwest 141 162 8,600 60 Climbing Albuquerque Center
01:11PM 36.2000 -101.6681 323° Northwest 140 161 8,700  Climbing Albuquerque Center
01:12PM 36.2333 -101.6944 327° Northwest 140 161 8,600 -120 Descending Albuquerque Center
01:13PM 36.2656 -101.7231 324° Northwest 140 161 8,500 -120 Descending Albuquerque Center
01:14PM 36.2858 -101.7606 304° West 139 160 8,400 -180 Descending Albuquerque Center
01:15PM 36.3017 -101.8111 291° West 137 158 8,200 -180 Descending Albuquerque Center
01:16PM 36.3169 -101.8536 294° West 136 157 8,100 -120 Descending Albuquerque Center
01:17PM 36.3364 -101.8936 301° West 136 157 8,000  Descending Albuquerque Center
01:18PM 36.3586 -101.9297 307° West 135 155 8,100 60 Climbing Albuquerque Center
01:19PM 36.3836 -101.9608 315° West 134 154 8,200 120 Climbing Albuquerque Center
01:20PM 36.4042 -102.0022 302° West 122 140 8,400 120 Climbing Albuquerque Center
01:21PM 36.4139 -102.0408 287° West 121 139 8,500  Climbing Albuquerque Center
01:22PM 36.4225 -102.0803 285° West 115 132 8,500  Level Albuquerque Center
01:23PM 36.4436 -102.1131 309° West 118 136 8,500  Level Albuquerque Center
01:24PM 36.4628 -102.1506 302° West 123 142 8,500  Level Albuquerque Center
01:25PM 36.4803 -102.1883 300° West 123 142 8,500  Level Albuquerque Center
01:26PM 36.4969 -102.2381 293° West 126 145 8,600  Climbing Albuquerque Center
01:27PM 36.5131 -102.2761 298° West 126 145 8,600  Level Albuquerque Center
01:28PM 36.5339 -102.3117 306° West 127 146 8,600  Level Albuquerque Center
01:29PM 36.5519 -102.3503 300° West 127 146 8,600  Level Albuquerque Center
01:30PM 36.5678 -102.3903 296° West 127 146 8,600  Level Albuquerque Center
01:31PM 36.5853 -102.4417 293° West 129 148 8,600  Level Albuquerque Center
01:32PM 36.6128 -102.4719 319° Northwest 133 153 8,600 -60 Level Albuquerque Center
01:33PM 36.6367 -102.5050 312° West 133 153 8,500  Descending Albuquerque Center
01:34PM 36.6564 -102.5411 304° West 131 151 8,600  Climbing Albuquerque Center
01:35PM 36.6747 -102.5817 299° West 131 151 8,600  Level Albuquerque Center
01:37PM 36.6911 -102.6217 297° West 131 151 8,600  Level Albuquerque Center
01:38PM 36.7061 -102.6736 290° West 131 151 8,600  Level Albuquerque Center
01:39PM 36.7261 -102.7139 302° West 131 151 8,600  Level Albuquerque Center
01:40PM 36.7453 -102.7575 299° West 138 159 8,600  Level Albuquerque Center
01:41PM 36.7658 -102.7914 307° West 136 157 8,600  Level Albuquerque Center
01:42PM 36.7847 -102.8261 304° West 128 147 8,600  Level Albuquerque Center
01:43PM 36.8114 -102.8689 308° West 128 147 8,600  Level Albuquerque Center
01:44PM 36.8336 -102.9042 308° West 128 147 8,600  Level Albuquerque Center
01:45PM 36.8528 -102.9400 304° West 128 147 8,600  Level Albuquerque Center
01:46PM 36.8747 -102.9789 305° West 128 147 8,600  Level Albuquerque Center
01:47PM 36.8928 -103.0156 302° West 128 147 8,600  Level Albuquerque Center
01:49PM 36.9196 -103.0759 299° West  Level Estimated
01:56PM 37.0342 -103.3348 299° West  Level Estimated
01:57PM 37.0505 -103.3719 299° West  Level Estimated
01:58PM 37.0668 -103.4089 299° West  Level Estimated
01:59PM 37.0831 -103.4460 299° West  Level Estimated
02:00PM 37.0994 -103.4831 299° West  Level Estimated
02:01PM 37.1157 -103.5203 299° West  Level Estimated
02:02PM 37.1319 -103.5574 299° West  Level Estimated
02:03PM 37.1482 -103.5945 299° West  Level Estimated
02:04PM 37.1644 -103.6317 299° West  Level Estimated
02:05PM 37.1806 -103.6689 299° West  Level Estimated
02:06PM 37.1968 -103.7061 299° West  Level Estimated
02:07PM 37.2131 -103.7433 299° West  Level Estimated
02:08PM 37.2293 -103.7805 299° West  Level Estimated
02:09PM 37.2454 -103.8178 299° West  Level Estimated
02:10PM 37.2616 -103.8551 299° West  Level Estimated
02:11PM 37.2778 -103.8923 299° West  Level Estimated
02:12PM 37.2939 -103.9296 299° West  Level Estimated
02:13PM 37.3101 -103.9669 299° West  Level Estimated
02:14PM 37.3262 -104.0043 299° West  Level Estimated
02:15PM 37.3423 -104.0416 298° West  Level Estimated
02:16PM 37.3584 -104.0790 298° West  Level Estimated
02:17PM 37.3745 -104.1163 298° West  Level Estimated
02:18PM 37.3905 -104.1537 298° West  Level Estimated
02:19PM 37.4066 -104.1911 298° West  Level Estimated
02:20PM 37.4227 -104.2286 298° West  Level Estimated
02:21PM 37.4387 -104.2660 298° West  Level Estimated
02:22PM 37.4547 -104.3035 298° West  Level Estimated
02:23PM 37.4707 -104.3409 298° West  Level Estimated
02:24PM 37.4868 -104.3784 298° West  Level Estimated
02:25PM 37.5028 -104.4159 298° West  Level Estimated
02:26PM 37.5187 -104.4535 298° West  Level Estimated
02:27PM 37.5347 -104.4910 298° West  Level Estimated
02:28PM 37.5507 -104.5285 298° West  Level Estimated
02:29PM 37.5666 -104.5661 298° West  Level Estimated
02:30PM 37.5825 -104.6037 298° West  Level Estimated
02:31PM 37.5985 -104.6413 298° West  Level Estimated
02:32PM 37.6144 -104.6789 298° West  Level Estimated
02:33PM 37.6303 -104.7166 298° West  Level Estimated
02:34PM 37.6462 -104.7542 298° West  Level Estimated
02:35PM 37.6620 -104.7919 298° West  Level Estimated
02:36PM 37.6779 -104.8296 298° West  Level Estimated
02:37PM 37.6937 -104.8672 298° West  Level Estimated
02:38PM 37.7096 -104.9050 298° West  Level Estimated
02:39PM 37.7254 -104.9427 298° West  Level Estimated
02:40PM 37.7412 -104.9804 298° West  Level Estimated
02:41PM 37.7570 -105.0182 298° West  Level Estimated
02:42PM 37.7728 -105.0560 298° West  Level Estimated
02:43PM 37.7886 -105.0938 298° West  Level Estimated
02:44PM 37.8044 -105.1316 298° West  Level Estimated
02:45PM 37.8201 -105.1694 298° West  Level Estimated
02:46PM 37.8359 -105.2073 298° West  Level Estimated
02:47PM 37.8516 -105.2451 298° West  Level Estimated
02:48PM 37.8673 -105.2830 298° West  Level Estimated
02:49PM 37.8830 -105.3209 298° West  Level Estimated
02:50PM 37.8987 -105.3588 298° West  Level Estimated
02:51PM 37.9144 -105.3967 298° West  Level Estimated
02:52PM 37.9301 -105.4346 298° West  Level Estimated
02:53PM 37.9457 -105.4726 298° West  Level Estimated
02:54PM 37.9614 -105.5106 298° West  Level Estimated
02:55PM 37.9770 -105.5486 298° West  Level Estimated
02:56PM 37.9926 -105.5866 298° West  Level Estimated
02:56PM 37.5984 -105.6716 318° Northwest 118 136 10,500  Level FlightAware ADS-B (KANK)
03:04PM 37.8119 -105.9013 324° Northwest 122 140 12,200 120 Climbing FlightAware ADS-B (KANK)
03:09PM 37.9438 -106.0385 322° Northwest 132 152 12,500  Climbing FlightAware ADS-B (KANK)
03:10PM 37.9629 -106.0552 328° Northwest 140 161 12,300 -180 Descending FlightAware ADS-B (KANK)
03:10PM 37.9785 -106.0679 325° Northwest 128 147 12,300  Level FlightAware ADS-B (KANK)
03:11PM 37.9947 -106.0809 327° Northwest 130 150 12,300 60 Level FlightAware ADS-B (KANK)
03:11PM 38.0095 -106.0947 326° Northwest 129 148 12,400 60 Climbing FlightAware ADS-B (KANK)
03:12PM 38.0257 -106.1086 327° Northwest 127 146 12,400 60 Level FlightAware ADS-B (KANK)
03:12PM 38.0468 -106.1280 318° Northwest 119 137 12,500  Climbing FlightAware ADS-B (KANK)
03:13PM 38.0594 -106.1439 316° Northwest 123 142 12,400 -240 Descending FlightAware ADS-B (KANK)
03:14PM 38.0732 -106.1612 311° West 121 139 12,300 -240 Descending FlightAware ADS-B (KANK)
03:14PM 38.0839 -106.1796 302° West 131 151 12,200 180 Descending FlightAware ADS-B (KANK)
03:15PM 38.0937 -106.2019 298° West 130 150 12,500 180 Climbing FlightAware ADS-B (KANK)
03:16PM 38.1085 -106.2454 291° West 128 147 12,500 240 Level FlightAware ADS-B (KANK)
03:17PM 38.1221 -106.2882 297° West 125 144 13,000 420 Climbing FlightAware ADS-B (KANK)
03:17PM 38.1290 -106.3095 290° West 128 147 13,200 -120 Climbing FlightAware ADS-B (KANK)
03:18PM 38.1361 -106.3332 291° West 131 151 12,900 -420 Descending FlightAware ADS-B (KANK)
03:18PM 38.1421 -106.3553 287° West 130 150 12,800 -300 Descending FlightAware ADS-B (KANK)
03:19PM 38.1494 -106.3798 291° West 125 144 12,600 -540 Descending FlightAware ADS-B (KANK)
03:19PM 38.1573 -106.4062 291° West 133 153 12,200 -300 Descending FlightAware ADS-B (KANK)
03:23PM 38.1982 -106.5312 300° West 113 130 11,500 -180 Descending FlightAware ADS-B (KANK)
03:24PM 38.2140 -106.5766 292° West 105 121 11,400 -60 Descending FlightAware ADS-B (KANK)
03:25PM 38.2233 -106.6087 290° West 116 133 11,400 -120 Level FlightAware ADS-B (KANK)
03:25PM 38.2300 -106.6297 295° West 125 144 11,300 -120 Descending FlightAware ADS-B (KANK)
03:26PM 38.2406 -106.6564 297° West 129 148 11,300 -120 Level FlightAware ADS-B (KANK)
03:28PM 38.2657 -106.7187 314° West 135 155 11,100 -120 Descending FlightAware ADS-B (KANK)
03:28PM 38.2837 -106.7385 332° Northwest 133 153 11,100  Level FlightAware ADS-B (KANK)
03:31PM 38.3506 -106.7904 329° Northwest  Level Estimated
03:32PM 38.3794 -106.8128 329° Northwest  Level Estimated
03:33PM 38.4083 -106.8352 329° Northwest  Level Estimated
03:34PM 38.4371 -106.8576 329° Northwest  Level Estimated
03:35PM 38.4660 -106.8801 329° Northwest  Level Estimated
03:36PM 38.4948 -106.9025 329° Northwest  Level Estimated
03:37PM 38.5237 -106.9250 329° Northwest  Level Estimated
03:38PM 38.5339 -106.9330 329° Northwest  Level Estimated
03:39PM 38.5339 -106.9330 North  Level Estimated
03:40PM 38.5339 -106.9330 North  Level Estimated
03:41PM 38.5339 -106.9330 North  Level Estimated
03:42PM 38.5339 -106.9330 North  Level Estimated
03:43PM 38.5339 -106.9330 North  Level Estimated
03:44PM 38.5339 -106.9330 North  Level Estimated
03:45PM 38.5339 -106.9330 North  Level Estimated
03:46PM 38.5339 -106.9330 North  Level Estimated